^^
Paulen-Weather Station Historical Data
Daily Summary for May 26, 2022 Units:  English    Metric   Both
Daily Weekly Monthly Yearly Custom
  High: Low: Average:
Temperature: 59 °F 50 °F 54.7 °F
Dew Point: 51.8 °F 42.8 °F 47.8 °F
Humidity: 97% 60% 78%
Wind Speed: 23.6mph 3.7mph 12.2mph
Wind Gust: 18mph - -
Wind- - NNW
Pressure: 29.7 in 29.5 in -
Precipitation: 0.02 in    
Historical Graphs
 
 
Tabular Data for May 26, 2022
Time Temperature Dew Point Pressure Wind Wind Speed Wind Gust Humidity Rainfall Rate (Hourly) solar
00:04 53.6 °F 51.8 °F 29.6 in N 18 mph 13.7 mph 97% 0.02 in 0 W/m2
00:09 53.6 °F 51.8 °F 29.6 in N 14.9 mph 12.4 mph 97% 0.02 in 0 W/m2
00:14 53.6 °F 51.8 °F 29.5 in N 12.4 mph 9.3 mph 97% 0.02 in 0 W/m2
00:19 53.6 °F 51.8 °F 29.5 in N 11.8 mph 9.3 mph 97% 0.01 in 0 W/m2
00:24 53.6 °F 51.8 °F 29.5 in N 11.2 mph 9.3 mph 97% 0.01 in 0 W/m2
00:29 53.6 °F 51.8 °F 29.5 in N 14.9 mph 11.2 mph 97% 0.01 in 0 W/m2
00:34 53.6 °F 51.8 °F 29.5 in N 14.3 mph 11.2 mph 97% 0 in 0 W/m2
00:39 53.6 °F 51.8 °F 29.5 in N 14.9 mph 11.2 mph 97% 0 in 0 W/m2
00:44 53.6 °F 51.8 °F 29.5 in N 12.4 mph 9.9 mph 97% 0 in 0 W/m2
00:49 53.6 °F 51.8 °F 29.5 in N 11.8 mph 9.3 mph 97% 0 in 0 W/m2
00:54 53.6 °F 51.8 °F 29.5 in N 11.8 mph 10.6 mph 97% 0 in 0 W/m2
00:59 53.6 °F 51.8 °F 29.5 in N 13 mph 13 mph 97% 0 in 0 W/m2
01:04 53.6 °F 51.8 °F 29.5 in N 13 mph 11.2 mph 97% 0 in 0 W/m2
01:09 53.6 °F 51.8 °F 29.5 in N 13.7 mph 10.6 mph 96% 0 in 0 W/m2
01:14 53.6 °F 51.8 °F 29.5 in N 13.7 mph 11.2 mph 96% 0 in 0 W/m2
01:19 53.6 °F 51.8 °F 29.5 in N 12.4 mph 10.6 mph 96% 0 in 0 W/m2
01:24 53.6 °F 51.8 °F 29.5 in N 11.8 mph 8.7 mph 96% 0 in 0 W/m2
01:29 53.6 °F 51.8 °F 29.5 in N 13.7 mph 10.6 mph 96% 0 in 0 W/m2
01:34 53.6 °F 51.8 °F 29.5 in N 13 mph 11.8 mph 96% 0 in 0 W/m2
01:39 53.6 °F 51.8 °F 29.5 in N 13.7 mph 10.6 mph 96% 0 in 0 W/m2
01:44 53.6 °F 51.8 °F 29.5 in N 14.9 mph 11.8 mph 96% 0 in 0 W/m2
01:49 53.6 °F 51.8 °F 29.5 in N 13 mph 8.1 mph 96% 0 in 0 W/m2
01:54 53.6 °F 51.8 °F 29.5 in N 13.7 mph 11.8 mph 96% 0 in 0 W/m2
01:59 53.6 °F 51.8 °F 29.5 in N 13.7 mph 11.2 mph 96% 0 in 0 W/m2
02:04 53.6 °F 51.8 °F 29.5 in N 14.3 mph 10.6 mph 96% 0 in 0 W/m2
02:09 53.6 °F 51.8 °F 29.5 in N 11.2 mph 6.8 mph 96% 0 in 0 W/m2
02:14 53.6 °F 51.8 °F 29.5 in N 11.2 mph 8.1 mph 95% 0 in 0 W/m2
02:19 53.6 °F 51.8 °F 29.5 in N 11.2 mph 8.1 mph 95% 0 in 0 W/m2
02:24 53.6 °F 51.8 °F 29.5 in N 8.1 mph 8.1 mph 96% 0 in 0 W/m2
02:29 53.6 °F 51.8 °F 29.5 in N 10.6 mph 6.8 mph 96% 0 in 0 W/m2
02:34 53.6 °F 51.8 °F 29.5 in N 9.9 mph 8.7 mph 95% 0 in 0 W/m2
02:39 53.6 °F 51.8 °F 29.5 in NNW 10.6 mph 6.2 mph 95% 0 in 0 W/m2
02:44 51.8 °F 51.8 °F 29.5 in NNW 9.9 mph 6.8 mph 95% 0 in 0 W/m2
02:49 51.8 °F 51.8 °F 29.5 in NNW 9.9 mph 5 mph 95% 0 in 0 W/m2
02:54 51.8 °F 51.8 °F 29.5 in NW 5.6 mph 4.3 mph 95% 0 in 0 W/m2
02:59 51.8 °F 51.8 °F 29.5 in NW 7.5 mph 3.7 mph 95% 0 in 0 W/m2
03:04 51.8 °F 51.8 °F 29.5 in N 8.7 mph 8.1 mph 95% 0 in 0 W/m2
03:09 51.8 °F 50 °F 29.5 in NNW 9.3 mph 5.6 mph 95% 0 in 0 W/m2
03:14 51.8 °F 50 °F 29.5 in NNW 8.7 mph 5 mph 95% 0 in 0 W/m2
03:19 51.8 °F 50 °F 29.5 in NNW 9.3 mph 5.6 mph 95% 0 in 0 W/m2
03:24 51.8 °F 50 °F 29.5 in NNW 10.6 mph 6.8 mph 95% 0 in 0 W/m2
03:29 51.8 °F 50 °F 29.5 in NW 9.3 mph 6.2 mph 95% 0 in 0 W/m2
03:34 51.8 °F 50 °F 29.5 in NW 11.8 mph 8.1 mph 94% 0 in 0 W/m2
03:39 51.8 °F 50 °F 29.5 in NNW 8.7 mph 6.8 mph 94% 0 in 0 W/m2
03:44 51.8 °F 50 °F 29.5 in NNW 9.9 mph 6.2 mph 94% 0 in 0 W/m2
03:49 51.8 °F 50 °F 29.5 in NNW 6.8 mph 4.3 mph 94% 0 in 0 W/m2
03:54 51.8 °F 50 °F 29.5 in NNW 8.7 mph 6.2 mph 94% 0 in 0 W/m2
03:59 51.8 °F 50 °F 29.5 in NNW 7.5 mph 5 mph 94% 0 in 0 W/m2
04:04 51.8 °F 50 °F 29.5 in NW 10.6 mph 7.5 mph 93% 0 in 0 W/m2
04:09 51.8 °F 50 °F 29.5 in NNW 9.3 mph 8.7 mph 93% 0 in 0 W/m2
04:14 51.8 °F 50 °F 29.5 in NNW 8.7 mph 7.5 mph 93% 0 in 0 W/m2
04:19 51.8 °F 50 °F 29.5 in NW 6.8 mph 5 mph 93% 0 in 0 W/m2
04:24 51.8 °F 50 °F 29.5 in NNW 6.8 mph 4.3 mph 93% 0 in 0 W/m2
04:29 51.8 °F 48.2 °F 29.5 in NW 8.1 mph 5.6 mph 92% 0 in 0 W/m2
04:34 51.8 °F 48.2 °F 29.5 in NNW 8.1 mph 8.1 mph 92% 0 in 0 W/m2
04:39 50 °F 48.2 °F 29.5 in NW 10.6 mph 5.6 mph 92% 0 in 0 W/m2
04:44 50 °F 48.2 °F 29.6 in NW 9.3 mph 5.6 mph 92% 0 in 0 W/m2
04:49 50 °F 48.2 °F 29.6 in NNW 8.7 mph 5 mph 92% 0 in 5 W/m2
04:54 50 °F 48.2 °F 29.6 in NW 9.9 mph 5 mph 92% 0 in 5 W/m2
04:59 50 °F 48.2 °F 29.6 in NNW 9.9 mph 5.6 mph 91% 0 in 7 W/m2
05:04 50 °F 48.2 °F 29.6 in NNW 10.6 mph 7.5 mph 91% 0 in 7 W/m2
05:09 50 °F 48.2 °F 29.6 in NNW 10.6 mph 8.1 mph 91% 0 in 11 W/m2
05:14 50 °F 48.2 °F 29.6 in NW 8.1 mph 4.3 mph 91% 0 in 16 W/m2
05:19 50 °F 48.2 °F 29.6 in NNW 10.6 mph 6.2 mph 91% 0 in 19 W/m2
05:24 51.8 °F 48.2 °F 29.6 in NNW 13 mph 5.6 mph 91% 0 in 21 W/m2
05:29 50 °F 48.2 °F 29.6 in NNW 8.7 mph 6.2 mph 91% 0 in 23 W/m2
05:34 50 °F 48.2 °F 29.6 in NNW 7.5 mph 7.5 mph 91% 0 in 37 W/m2
05:39 50 °F 48.2 °F 29.6 in NW 11.8 mph 8.7 mph 92% 0 in 63 W/m2
05:44 50 °F 48.2 °F 29.6 in NW 10.6 mph 8.7 mph 92% 0 in 54 W/m2
05:49 50 °F 48.2 °F 29.6 in NW 8.7 mph 5.6 mph 92% 0 in 46 W/m2
05:54 50 °F 48.2 °F 29.6 in NNW 9.9 mph 6.8 mph 93% 0 in 56 W/m2
05:59 50 °F 48.2 °F 29.6 in NW 8.1 mph 6.2 mph 93% 0 in 90 W/m2
06:04 50 °F 48.2 °F 29.6 in N 8.7 mph 6.2 mph 93% 0 in 95 W/m2
06:09 50 °F 48.2 °F 29.6 in NW 5.6 mph 3.7 mph 93% 0 in 86 W/m2
06:14 50 °F 48.2 °F 29.6 in NW 8.7 mph 6.2 mph 93% 0 in 69 W/m2
06:19 50 °F 48.2 °F 29.6 in WNW 8.7 mph 4.3 mph 93% 0 in 58 W/m2
06:24 50 °F 48.2 °F 29.6 in NNW 7.5 mph 4.3 mph 93% 0 in 40 W/m2
06:29 50 °F 48.2 °F 29.6 in NW 8.1 mph 5.6 mph 93% 0 in 37 W/m2
06:34 50 °F 48.2 °F 29.6 in NNW 6.2 mph 4.3 mph 93% 0 in 77 W/m2
06:39 50 °F 48.2 °F 29.6 in NW 7.5 mph 5 mph 93% 0 in 90 W/m2
06:44 50 °F 48.2 °F 29.6 in NNW 8.7 mph 5.6 mph 93% 0 in 90 W/m2
06:49 50 °F 48.2 °F 29.6 in NNW 9.3 mph 6.2 mph 92% 0 in 40 W/m2
06:54 50 °F 48.2 °F 29.6 in NW 12.4 mph 8.7 mph 91% 0 in 37 W/m2
06:59 50 °F 48.2 °F 29.6 in NNW 9.9 mph 6.2 mph 91% 0 in 39 W/m2
07:04 50 °F 48.2 °F 29.6 in NNW 9.3 mph 8.1 mph 90% 0 in 167 W/m2
07:09 51.8 °F 48.2 °F 29.6 in NW 9.9 mph 7.5 mph 90% 0 in 236 W/m2
07:14 51.8 °F 48.2 °F 29.6 in NNW 9.3 mph 8.1 mph 89% 0 in 248 W/m2
07:19 51.8 °F 48.2 °F 29.6 in NNW 12.4 mph 8.1 mph 88% 0 in 260 W/m2
07:24 51.8 °F 48.2 °F 29.6 in NW 13.7 mph 8.7 mph 86% 0 in 271 W/m2
07:29 51.8 °F 48.2 °F 29.6 in NW 10.6 mph 7.5 mph 86% 0 in 283 W/m2
07:34 51.8 °F 48.2 °F 29.6 in NNW 13.7 mph 8.7 mph 85% 0 in 297 W/m2
07:39 51.8 °F 48.2 °F 29.6 in NNW 11.8 mph 6.8 mph 85% 0 in 309 W/m2
07:44 53.6 °F 48.2 °F 29.6 in NNW 9.9 mph 6.8 mph 85% 0 in 322 W/m2
07:49 53.6 °F 48.2 °F 29.6 in NNW 11.8 mph 8.1 mph 84% 0 in 334 W/m2
07:54 53.6 °F 48.2 °F 29.6 in NW 17.4 mph 11.2 mph 84% 0 in 345 W/m2
07:59 53.6 °F 48.2 °F 29.6 in NW 15.5 mph 9.9 mph 83% 0 in 355 W/m2
08:04 53.6 °F 48.2 °F 29.6 in NW 13 mph 9.3 mph 83% 0 in 367 W/m2
08:09 53.6 °F 48.2 °F 29.6 in NNW 13 mph 9.9 mph 83% 0 in 381 W/m2
08:14 53.6 °F 48.2 °F 29.6 in NW 13.7 mph 8.7 mph 82% 0 in 410 W/m2
08:19 53.6 °F 48.2 °F 29.6 in NNW 15.5 mph 10.6 mph 81% 0 in 443 W/m2
08:24 53.6 °F 48.2 °F 29.6 in NW 16.8 mph 12.4 mph 80% 0 in 464 W/m2
08:29 53.6 °F 48.2 °F 29.6 in NW 14.9 mph 11.8 mph 79% 0 in 497 W/m2
08:34 53.6 °F 48.2 °F 29.6 in NW 23.6 mph 18 mph 78% 0 in 497 W/m2
08:39 53.6 °F 48.2 °F 29.6 in NW 14.9 mph 11.8 mph 79% 0 in 499 W/m2
08:44 53.6 °F 48.2 °F 29.6 in NW 14.9 mph 11.2 mph 79% 0 in 499 W/m2
08:49 53.6 °F 48.2 °F 29.6 in NW 15.5 mph 11.2 mph 78% 0 in 499 W/m2
08:54 53.6 °F 48.2 °F 29.6 in NW 14.9 mph 9.9 mph 77% 0 in 512 W/m2
08:59 55.4 °F 48.2 °F 29.6 in NW 16.2 mph 13 mph 77% 0 in 512 W/m2
09:04 55.4 °F 48.2 °F 29.6 in NW 17.4 mph 13.7 mph 76% 0 in 529 W/m2
09:09 55.4 °F 48.2 °F 29.6 in NW 11.8 mph 8.7 mph 76% 0 in 522 W/m2
09:14 55.4 °F 48.2 °F 29.6 in NW 15.5 mph 10.6 mph 76% 0 in 566 W/m2
09:19 55.4 °F 48.2 °F 29.6 in NW 18.6 mph 12.4 mph 74% 0 in 587 W/m2
09:24 55.4 °F 46.4 °F 29.6 in NW 19.3 mph 15.5 mph 74% 0 in 550 W/m2
09:29 55.4 °F 46.4 °F 29.6 in NW 21.7 mph 15.5 mph 73% 0 in 555 W/m2
09:34 55.4 °F 46.4 °F 29.6 in NW 15.5 mph 13 mph 73% 0 in 587 W/m2
09:39 55.4 °F 48.2 °F 29.6 in NW 14.9 mph 11.8 mph 74% 0 in 628 W/m2
09:44 55.4 °F 46.4 °F 29.7 in NW 19.3 mph 11.8 mph 72% 0 in 624 W/m2
09:49 55.4 °F 46.4 °F 29.7 in NNW 23 mph 15.5 mph 71% 0 in 601 W/m2
09:54 55.4 °F 46.4 °F 29.7 in NW 21.7 mph 15.5 mph 70% 0 in 640 W/m2
09:59 55.4 °F 46.4 °F 29.7 in NW 14.9 mph 11.8 mph 70% 0 in 640 W/m2
10:04 55.4 °F 46.4 °F 29.7 in NNW 14.9 mph 9.3 mph 71% 0 in 624 W/m2
10:09 55.4 °F 46.4 °F 29.7 in NW 16.8 mph 9.3 mph 69% 0 in 638 W/m2
10:14 55.4 °F 46.4 °F 29.7 in NW 17.4 mph 13 mph 69% 0 in 631 W/m2
10:19 55.4 °F 46.4 °F 29.7 in NW 14.9 mph 12.4 mph 68% 0 in 635 W/m2
10:24 57.2 °F 46.4 °F 29.7 in NW 11.8 mph 9.3 mph 68% 0 in 645 W/m2
10:29 57.2 °F 46.4 °F 29.7 in NNW 11.8 mph 9.3 mph 67% 0 in 675 W/m2
10:34 57.2 °F 46.4 °F 29.7 in NNW 14.3 mph 10.6 mph 65% 0 in 758 W/m2
10:39 57.2 °F 44.6 °F 29.7 in NNW 19.9 mph 11.8 mph 64% 0 in 833 W/m2
10:44 57.2 °F 44.6 °F 29.7 in NNW 16.2 mph 11.8 mph 64% 0 in 833 W/m2
10:49 57.2 °F 44.6 °F 29.7 in NNW 18.6 mph 12.4 mph 64% 0 in 719 W/m2
10:54 57.2 °F 46.4 °F 29.7 in NW 10.6 mph 10.6 mph 66% 0 in 791 W/m2
10:59 57.2 °F 46.4 °F 29.7 in NW 12.4 mph 8.7 mph 67% 0 in 712 W/m2
11:04 57.2 °F 46.4 °F 29.7 in NNW 16.8 mph 11.8 mph 67% 0 in 712 W/m2
11:09 57.2 °F 44.6 °F 29.7 in NNW 17.4 mph 14.3 mph 65% 0 in 717 W/m2
11:14 57.2 °F 46.4 °F 29.7 in NW 9.9 mph 8.1 mph 67% 0 in 751 W/m2
11:19 57.2 °F 46.4 °F 29.7 in NW 11.8 mph 9.9 mph 65% 0 in 285 W/m2
11:24 57.2 °F 46.4 °F 29.7 in NW 13 mph 9.3 mph 65% 0 in 285 W/m2
11:29 57.2 °F 46.4 °F 29.7 in NW 12.4 mph 8.1 mph 65% 0 in 939 W/m2
11:34 59 °F 46.4 °F 29.7 in NW 13 mph 8.1 mph 64% 0 in 844 W/m2
11:39 59 °F 46.4 °F 29.7 in NW 11.2 mph 7.5 mph 63% 0 in 898 W/m2
11:44 59 °F 46.4 °F 29.7 in NNW 19.3 mph 13 mph 62% 0 in 898 W/m2
11:49 59 °F 46.4 °F 29.7 in NNW 14.3 mph 11.8 mph 61% 0 in 833 W/m2
11:54 59 °F 44.6 °F 29.7 in NW 13.7 mph 9.9 mph 60% 0 in 925 W/m2
11:59 59 °F 46.4 °F 29.7 in NNW 17.4 mph 9.9 mph 62% 0 in 925 W/m2
12:04 59 °F 46.4 °F 29.7 in NW 13 mph 8.1 mph 62% 0 in 895 W/m2
12:09 59 °F 46.4 °F 29.7 in NW 11.8 mph 9.3 mph 64% 0 in 895 W/m2
12:14 59 °F 46.4 °F 29.7 in NNW 13 mph 8.7 mph 64% 0 in 823 W/m2
12:19 59 °F 46.4 °F 29.7 in NNW 13.7 mph 10.6 mph 63% 0 in 853 W/m2
12:24 59 °F 46.4 °F 29.7 in NNW 13.7 mph 9.3 mph 63% 0 in 877 W/m2
12:29 59 °F 46.4 °F 29.7 in NNW 14.3 mph 9.9 mph 62% 0 in 798 W/m2
12:34 59 °F 46.4 °F 29.7 in NNW 17.4 mph 9.3 mph 62% 0 in 824 W/m2
12:39 59 °F 46.4 °F 29.7 in NNW 14.3 mph 9.3 mph 62% 0 in 998 W/m2
12:44 59 °F 46.4 °F 29.7 in NNW 12.4 mph 9.9 mph 62% 0 in 998 W/m2
12:49 59 °F 46.4 °F 29.7 in NNW 14.3 mph 10.6 mph 62% 0 in 399 W/m2
12:54 59 °F 46.4 °F 29.7 in NNW 16.8 mph 13 mph 63% 0 in 466 W/m2
12:59 57.2 °F 46.4 °F 29.7 in NNW 15.5 mph 12.4 mph 69% 0 in 851 W/m2
13:04 55.4 °F 48.2 °F 29.7 in NW 11.2 mph 8.7 mph 74% 0 in 851 W/m2
13:09 55.4 °F 46.4 °F 29.7 in NW 6.8 mph 8.1 mph 74% 0 in 246 W/m2
13:14 55.4 °F 46.4 °F 29.7 in NNW 8.1 mph 10.6 mph 73% 0 in 246 W/m2
13:19 55.4 °F 46.4 °F 29.7 in NNW 18.6 mph 14.3 mph 74% 0 in 283 W/m2
13:24 53.6 °F 46.4 °F 29.7 in NW 13 mph 10.6 mph 77% 0.01 in 283 W/m2
13:29 53.6 °F 46.4 °F 29.7 in NW 8.7 mph 5 mph 80% 0.01 in 758 W/m2
13:34 53.6 °F 48.2 °F 29.7 in NW 8.7 mph 5 mph 82% 0.01 in 816 W/m2
13:39 55.4 °F 50 °F 29.7 in WNW 7.5 mph 5 mph 82% 0.01 in 900 W/m2
13:44 55.4 °F 50 °F 29.7 in NW 7.5 mph 5 mph 79% 0.01 in 900 W/m2
13:49 57.2 °F 48.2 °F 29.7 in NW 13.7 mph 9.3 mph 73% 0.01 in 738 W/m2
13:54 55.4 °F 48.2 °F 29.7 in NNW 11.8 mph 10.6 mph 75% 0.02 in 220 W/m2
13:59 53.6 °F 48.2 °F 29.7 in NW 7.5 mph 5.6 mph 80% 0.02 in 721 W/m2
14:04 53.6 °F 50 °F 29.7 in NW 8.7 mph 6.2 mph 83% 0.02 in 775 W/m2
14:09 55.4 °F 50 °F 29.7 in NW 13.7 mph 9.3 mph 82% 0.02 in 763 W/m2
14:14 55.4 °F 50 °F 29.7 in NW 8.7 mph 6.8 mph 79% 0.02 in 775 W/m2
14:19 57.2 °F 50 °F 29.7 in NW 11.2 mph 6.8 mph 76% 0.02 in 809 W/m2
14:24 57.2 °F 48.2 °F 29.7 in NW 11.8 mph 6.8 mph 73% 0.02 in 889 W/m2
14:29 57.2 °F 48.2 °F 29.7 in NW 11.2 mph 7.5 mph 72% 0.01 in 889 W/m2
14:34 57.2 °F 46.4 °F 29.7 in NW 10.6 mph 7.5 mph 70% 0.01 in 225 W/m2
14:39 55.4 °F 48.2 °F 29.7 in NW 9.9 mph 6.8 mph 73% 0.01 in 195 W/m2
14:44 55.4 °F 48.2 °F 29.7 in NW 9.3 mph 6.2 mph 77% 0.01 in 227 W/m2
14:49 55.4 °F 48.2 °F 29.7 in WNW 8.1 mph 5.6 mph 77% 0.01 in 227 W/m2
14:54 55.4 °F 48.2 °F 29.7 in WNW 3.7 mph 4.3 mph 77% 0 in 195 W/m2
14:59 55.4 °F 48.2 °F 29.7 in NW 5.6 mph 5 mph 76% 0 in 227 W/m2
15:04 55.4 °F 46.4 °F 29.7 in NNW 13 mph 8.1 mph 71% 0 in 923 W/m2
15:09 57.2 °F 46.4 °F 29.7 in NNW 16.2 mph 11.2 mph 67% 0 in 918 W/m2
15:14 59 °F 46.4 °F 29.7 in NNW 13 mph 9.9 mph 65% 0 in 937 W/m2
15:19 59 °F 46.4 °F 29.7 in NNW 13 mph 8.7 mph 62% 0 in 949 W/m2
15:24 59 °F 46.4 °F 29.7 in NNW 11.8 mph 8.7 mph 61% 0 in 949 W/m2
15:29 59 °F 46.4 °F 29.7 in NNW 12.4 mph 9.3 mph 64% 0 in 325 W/m2
15:34 57.2 °F 46.4 °F 29.7 in NNW 14.9 mph 13 mph 67% 0 in 870 W/m2
15:39 57.2 °F 48.2 °F 29.7 in N 14.9 mph 9.9 mph 70% 0 in 849 W/m2
15:44 57.2 °F 48.2 °F 29.7 in NNW 15.5 mph 11.2 mph 68% 0 in 809 W/m2
15:49 59 °F 48.2 °F 29.7 in N 13.7 mph 10.6 mph 66% 0 in 773 W/m2
15:54 59 °F 48.2 °F 29.7 in N 12.4 mph 10.6 mph 69% 0 in 791 W/m2
15:59 57.2 °F 48.2 °F 29.7 in NNW 12.4 mph 11.2 mph 70% 0 in 791 W/m2
16:04 57.2 °F 48.2 °F 29.7 in N 11.2 mph 8.1 mph 70% 0 in 773 W/m2
16:09 57.2 °F 48.2 °F 29.7 in N 12.4 mph 9.3 mph 70% 0 in 722 W/m2
16:14 57.2 °F 48.2 °F 29.7 in NNW 11.8 mph 7.5 mph 68% 0 in 260 W/m2
16:19 57.2 °F 46.4 °F 29.7 in NNW 16.2 mph 13 mph 67% 0 in 761 W/m2
16:24 57.2 °F 48.2 °F 29.7 in NNW 14.9 mph 8.7 mph 68% 0 in 761 W/m2
16:29 59 °F 48.2 °F 29.7 in N 13.7 mph 9.9 mph 67% 0 in 687 W/m2
16:34 59 °F 46.4 °F 29.7 in N 16.8 mph 11.2 mph 63% 0 in 689 W/m2
16:39 59 °F 44.6 °F 29.7 in NNW 16.2 mph 9.9 mph 61% 0 in 805 W/m2
16:44 59 °F 44.6 °F 29.7 in NNW 16.2 mph 10.6 mph 60% 0 in 805 W/m2
16:49 59 °F 44.6 °F 29.7 in N 14.3 mph 8.7 mph 60% 0 in 455 W/m2
16:54 59 °F 46.4 °F 29.7 in N 16.2 mph 11.2 mph 62% 0 in 742 W/m2
16:59 59 °F 48.2 °F 29.7 in N 11.2 mph 8.7 mph 67% 0 in 624 W/m2
17:04 57.2 °F 46.4 °F 29.7 in NNW 16.2 mph 10.6 mph 66% 0 in 587 W/m2
17:09 57.2 °F 44.6 °F 29.7 in N 18 mph 13 mph 62% 0 in 564 W/m2
17:14 57.2 °F 44.6 °F 29.7 in N 13 mph 9.3 mph 64% 0 in 555 W/m2
17:19 57.2 °F 46.4 °F 29.7 in N 13.7 mph 9.9 mph 67% 0 in 545 W/m2
17:24 55.4 °F 46.4 °F 29.7 in N 15.5 mph 9.9 mph 69% 0 in 538 W/m2
17:29 55.4 °F 46.4 °F 29.7 in N 13 mph 8.7 mph 70% 0 in 524 W/m2
17:34 55.4 °F 46.4 °F 29.7 in N 16.2 mph 9.9 mph 70% 0 in 512 W/m2
17:39 55.4 °F 46.4 °F 29.7 in N 15.5 mph 11.2 mph 71% 0 in 506 W/m2
17:44 55.4 °F 46.4 °F 29.7 in N 16.2 mph 11.8 mph 72% 0 in 497 W/m2
17:49 55.4 °F 46.4 °F 29.7 in N 14.9 mph 11.2 mph 72% 0 in 487 W/m2
17:54 55.4 °F 46.4 °F 29.7 in NNW 11.2 mph 8.7 mph 72% 0 in 480 W/m2
17:59 55.4 °F 46.4 °F 29.7 in N 15.5 mph 8.1 mph 69% 0 in 473 W/m2
18:04 57.2 °F 46.4 °F 29.7 in N 11.8 mph 9.3 mph 69% 0 in 459 W/m2
18:09 57.2 °F 46.4 °F 29.7 in N 14.9 mph 11.2 mph 67% 0 in 445 W/m2
18:14 57.2 °F 46.4 °F 29.7 in NNW 13 mph 8.1 mph 67% 0 in 441 W/m2
18:19 57.2 °F 46.4 °F 29.7 in NNW 10.6 mph 6.2 mph 68% 0 in 420 W/m2
18:24 57.2 °F 46.4 °F 29.7 in NNW 13 mph 8.1 mph 67% 0 in 408 W/m2
18:29 57.2 °F 44.6 °F 29.7 in N 14.9 mph 10.6 mph 64% 0 in 429 W/m2
18:34 57.2 °F 44.6 °F 29.7 in NNW 11.2 mph 7.5 mph 65% 0 in 429 W/m2
18:39 57.2 °F 44.6 °F 29.7 in N 10.6 mph 8.1 mph 64% 0 in 378 W/m2
18:44 57.2 °F 44.6 °F 29.7 in N 14.3 mph 9.3 mph 62% 0 in 364 W/m2
18:49 57.2 °F 44.6 °F 29.7 in NNW 11.8 mph 8.7 mph 62% 0 in 369 W/m2
18:54 57.2 °F 42.8 °F 29.7 in NNW 11.2 mph 8.7 mph 61% 0 in 359 W/m2
18:59 57.2 °F 44.6 °F 29.7 in NNW 9.9 mph 6.2 mph 64% 0 in 329 W/m2
19:04 57.2 °F 44.6 °F 29.7 in N 16.2 mph 11.2 mph 63% 0 in 322 W/m2
19:09 55.4 °F 42.8 °F 29.7 in NNW 16.8 mph 11.2 mph 61% 0 in 313 W/m2
19:14 55.4 °F 42.8 °F 29.7 in NNW 10.6 mph 6.8 mph 62% 0 in 297 W/m2
19:19 55.4 °F 42.8 °F 29.7 in NNW 9.9 mph 7.5 mph 62% 0 in 297 W/m2
19:24 55.4 °F 44.6 °F 29.7 in NNW 12.4 mph 6.8 mph 67% 0 in 292 W/m2
19:29 55.4 °F 46.4 °F 29.7 in NW 8.7 mph 6.8 mph 69% 0 in 276 W/m2
19:34 55.4 °F 44.6 °F 29.7 in NNW 11.8 mph 9.3 mph 68% 0 in 255 W/m2
19:39 55.4 °F 42.8 °F 29.7 in NNW 13 mph 9.3 mph 62% 0 in 241 W/m2
19:44 55.4 °F 42.8 °F 29.7 in NNW 11.8 mph 9.9 mph 63% 0 in 230 W/m2
19:49 55.4 °F 42.8 °F 29.7 in NNW 7.5 mph 5.6 mph 64% 0 in 216 W/m2
19:54 55.4 °F 44.6 °F 29.7 in NW 10.6 mph 5.6 mph 65% 0 in 204 W/m2
19:59 55.4 °F 42.8 °F 29.7 in NNW 14.3 mph 9.3 mph 64% 0 in 193 W/m2
20:04 55.4 °F 42.8 °F 29.7 in NNW 8.1 mph 6.2 mph 64% 0 in 183 W/m2
20:09 55.4 °F 44.6 °F 29.7 in NW 6.8 mph 4.3 mph 65% 0 in 176 W/m2
20:14 55.4 °F 44.6 °F 29.7 in NW 6.8 mph 4.3 mph 65% 0 in 174 W/m2
20:19 55.4 °F 44.6 °F 29.7 in NNW 8.7 mph 5.6 mph 65% 0 in 155 W/m2
20:24 55.4 °F 44.6 °F 29.7 in NW 8.7 mph 5.6 mph 67% 0 in 139 W/m2
20:29 53.6 °F 44.6 °F 29.7 in NW 5.6 mph 3.1 mph 68% 0 in 128 W/m2
20:34 53.6 °F 44.6 °F 29.7 in NW 3.7 mph 2.5 mph 69% 0 in 123 W/m2
20:39 53.6 °F 44.6 °F 29.7 in NNW 7.5 mph 6.2 mph 70% 0 in 114 W/m2
20:44 53.6 °F 44.6 °F 29.7 in NNW 8.7 mph 5 mph 73% 0 in 105 W/m2
20:49 53.6 °F 46.4 °F 29.7 in NNW 9.3 mph 5.6 mph 75% 0 in 98 W/m2
20:54 53.6 °F 44.6 °F 29.7 in NNW 8.7 mph 5.6 mph 76% 0 in 86 W/m2
20:59 51.8 °F 46.4 °F 29.7 in NNW 9.9 mph 6.8 mph 77% 0 in 77 W/m2
Compliments of Weather Underground - 2 mb